sensor_id;sensor_type;location;lat;lon;timestamp;P1;durP1;ratioP1;P2;durP2;ratioP2
69837;SDS011;57135;51.992;4.476;2023-04-24T00:00:31;2.55;;;2.55;;
69837;SDS011;57135;51.992;4.476;2023-04-24T00:02:57;2.43;;;2.43;;
69837;SDS011;57135;51.992;4.476;2023-04-24T00:05:23;2.73;;;2.73;;
69837;SDS011;57135;51.992;4.476;2023-04-24T00:07:49;2.91;;;2.89;;
69837;SDS011;57135;51.992;4.476;2023-04-24T00:10:17;3.12;;;3.10;;
69837;SDS011;57135;51.992;4.476;2023-04-24T00:12:43;2.96;;;2.95;;
69837;SDS011;57135;51.992;4.476;2023-04-24T00:15:09;3.24;;;3.22;;
69837;SDS011;57135;51.992;4.476;2023-04-24T00:17:35;4.35;;;4.33;;
69837;SDS011;57135;51.992;4.476;2023-04-24T00:20:00;5.52;;;5.50;;
69837;SDS011;57135;51.992;4.476;2023-04-24T00:22:29;4.95;;;4.94;;
69837;SDS011;57135;51.992;4.476;2023-04-24T00:24:56;4.43;;;4.43;;
69837;SDS011;57135;51.992;4.476;2023-04-24T00:27:22;3.58;;;3.58;;
69837;SDS011;57135;51.992;4.476;2023-04-24T00:29:48;3.43;;;3.43;;
69837;SDS011;57135;51.992;4.476;2023-04-24T00:32:13;2.81;;;2.81;;
69837;SDS011;57135;51.992;4.476;2023-04-24T00:34:39;2.18;;;2.18;;
69837;SDS011;57135;51.992;4.476;2023-04-24T00:37:06;2.31;;;2.31;;
69837;SDS011;57135;51.992;4.476;2023-04-24T00:39:31;2.19;;;2.19;;
69837;SDS011;57135;51.992;4.476;2023-04-24T00:41:57;2.46;;;2.46;;
69837;SDS011;57135;51.992;4.476;2023-04-24T00:44:22;2.25;;;2.25;;
69837;SDS011;57135;51.992;4.476;2023-04-24T00:46:49;2.39;;;2.39;;
69837;SDS011;57135;51.992;4.476;2023-04-24T00:49:19;2.52;;;2.52;;
69837;SDS011;57135;51.992;4.476;2023-04-24T00:51:45;2.60;;;2.60;;
69837;SDS011;57135;51.992;4.476;2023-04-24T00:54:12;2.47;;;2.47;;
69837;SDS011;57135;51.992;4.476;2023-04-24T00:56:38;2.61;;;2.61;;
69837;SDS011;57135;51.992;4.476;2023-04-24T00:59:03;2.62;;;2.62;;
69837;SDS011;57135;51.992;4.476;2023-04-24T01:01:30;2.25;;;2.25;;
69837;SDS011;57135;51.992;4.476;2023-04-24T01:03:55;2.01;;;2.01;;
69837;SDS011;57135;51.992;4.476;2023-04-24T01:06:22;1.63;;;1.63;;
69837;SDS011;57135;51.992;4.476;2023-04-24T01:08:52;1.36;;;1.36;;
69837;SDS011;57135;51.992;4.476;2023-04-24T01:11:19;1.28;;;1.27;;
69837;SDS011;57135;51.992;4.476;2023-04-24T01:13:47;1.46;;;1.46;;
69837;SDS011;57135;51.992;4.476;2023-04-24T01:16:13;1.33;;;1.33;;
69837;SDS011;57135;51.992;4.476;2023-04-24T01:18:42;1.70;;;1.70;;
69837;SDS011;57135;51.992;4.476;2023-04-24T01:21:08;1.84;;;1.84;;
69837;SDS011;57135;51.992;4.476;2023-04-24T01:23:38;2.10;;;2.10;;
69837;SDS011;57135;51.992;4.476;2023-04-24T01:26:04;1.49;;;1.49;;
69837;SDS011;57135;51.992;4.476;2023-04-24T01:28:29;1.12;;;1.12;;
69837;SDS011;57135;51.992;4.476;2023-04-24T01:30:55;1.00;;;1.00;;
69837;SDS011;57135;51.992;4.476;2023-04-24T01:33:21;1.00;;;1.00;;
69837;SDS011;57135;51.992;4.476;2023-04-24T01:35:47;0.81;;;0.81;;
69837;SDS011;57135;51.992;4.476;2023-04-24T01:38:13;0.71;;;0.71;;
69837;SDS011;57135;51.992;4.476;2023-04-24T01:40:38;0.71;;;0.71;;
69837;SDS011;57135;51.992;4.476;2023-04-24T01:43:04;0.82;;;0.82;;
69837;SDS011;57135;51.992;4.476;2023-04-24T01:45:30;0.83;;;0.83;;
69837;SDS011;57135;51.992;4.476;2023-04-24T01:47:55;0.87;;;0.87;;
69837;SDS011;57135;51.992;4.476;2023-04-24T01:50:21;0.94;;;0.94;;
69837;SDS011;57135;51.992;4.476;2023-04-24T01:52:47;1.02;;;1.02;;
69837;SDS011;57135;51.992;4.476;2023-04-24T01:55:12;1.03;;;1.03;;
69837;SDS011;57135;51.992;4.476;2023-04-24T01:57:38;1.19;;;1.19;;
69837;SDS011;57135;51.992;4.476;2023-04-24T02:00:03;1.17;;;1.17;;
69837;SDS011;57135;51.992;4.476;2023-04-24T02:02:30;1.31;;;1.31;;
69837;SDS011;57135;51.992;4.476;2023-04-24T02:04:56;1.27;;;1.27;;
69837;SDS011;57135;51.992;4.476;2023-04-24T02:07:22;1.38;;;1.38;;
69837;SDS011;57135;51.992;4.476;2023-04-24T02:09:47;1.46;;;1.46;;
69837;SDS011;57135;51.992;4.476;2023-04-24T02:12:13;1.86;;;1.86;;
69837;SDS011;57135;51.992;4.476;2023-04-24T02:14:42;1.71;;;1.71;;
69837;SDS011;57135;51.992;4.476;2023-04-24T02:17:08;1.81;;;1.80;;
69837;SDS011;57135;51.992;4.476;2023-04-24T02:19:34;1.87;;;1.87;;
69837;SDS011;57135;51.992;4.476;2023-04-24T02:21:59;1.94;;;1.94;;
69837;SDS011;57135;51.992;4.476;2023-04-24T02:24:25;2.10;;;2.09;;
69837;SDS011;57135;51.992;4.476;2023-04-24T02:26:50;2.40;;;2.38;;
69837;SDS011;57135;51.992;4.476;2023-04-24T02:29:16;2.54;;;2.50;;
69837;SDS011;57135;51.992;4.476;2023-04-24T02:31:41;2.92;;;2.86;;
69837;SDS011;57135;51.992;4.476;2023-04-24T02:34:07;3.31;;;3.22;;
69837;SDS011;57135;51.992;4.476;2023-04-24T02:36:32;3.22;;;3.14;;
69837;SDS011;57135;51.992;4.476;2023-04-24T02:38:58;2.80;;;2.75;;
69837;SDS011;57135;51.992;4.476;2023-04-24T02:41:23;2.26;;;2.26;;
69837;SDS011;57135;51.992;4.476;2023-04-24T02:43:49;1.75;;;1.75;;
69837;SDS011;57135;51.992;4.476;2023-04-24T02:46:14;1.36;;;1.36;;
69837;SDS011;57135;51.992;4.476;2023-04-24T02:48:40;1.16;;;1.16;;
69837;SDS011;57135;51.992;4.476;2023-04-24T02:51:05;1.16;;;1.16;;
69837;SDS011;57135;51.992;4.476;2023-04-24T02:53:31;1.19;;;1.19;;
69837;SDS011;57135;51.992;4.476;2023-04-24T02:55:57;0.94;;;0.93;;
69837;SDS011;57135;51.992;4.476;2023-04-24T02:58:22;1.00;;;0.99;;
69837;SDS011;57135;51.992;4.476;2023-04-24T03:00:48;0.91;;;0.89;;
69837;SDS011;57135;51.992;4.476;2023-04-24T03:03:13;0.93;;;0.91;;
69837;SDS011;57135;51.992;4.476;2023-04-24T03:05:40;1.05;;;1.02;;
69837;SDS011;57135;51.992;4.476;2023-04-24T03:08:05;1.11;;;1.07;;
69837;SDS011;57135;51.992;4.476;2023-04-24T03:10:31;1.27;;;1.22;;
69837;SDS011;57135;51.992;4.476;2023-04-24T03:12:57;1.25;;;1.22;;
69837;SDS011;57135;51.992;4.476;2023-04-24T03:15:22;1.50;;;1.48;;
69837;SDS011;57135;51.992;4.476;2023-04-24T03:17:48;1.32;;;1.27;;
69837;SDS011;57135;51.992;4.476;2023-04-24T03:20:13;1.36;;;1.28;;
69837;SDS011;57135;51.992;4.476;2023-04-24T03:22:39;1.51;;;1.40;;
69837;SDS011;57135;51.992;4.476;2023-04-24T03:25:05;1.54;;;1.44;;
69837;SDS011;57135;51.992;4.476;2023-04-24T03:27:31;1.51;;;1.42;;
69837;SDS011;57135;51.992;4.476;2023-04-24T03:29:56;1.44;;;1.36;;
69837;SDS011;57135;51.992;4.476;2023-04-24T03:32:22;1.40;;;1.35;;
69837;SDS011;57135;51.992;4.476;2023-04-24T03:34:48;1.32;;;1.29;;
69837;SDS011;57135;51.992;4.476;2023-04-24T03:37:15;1.30;;;1.29;;
69837;SDS011;57135;51.992;4.476;2023-04-24T03:39:40;1.25;;;1.24;;
69837;SDS011;57135;51.992;4.476;2023-04-24T03:42:06;0.73;;;0.73;;
69837;SDS011;57135;51.992;4.476;2023-04-24T03:44:33;0.81;;;0.79;;
69837;SDS011;57135;51.992;4.476;2023-04-24T03:46:59;0.97;;;0.94;;
69837;SDS011;57135;51.992;4.476;2023-04-24T03:49:24;0.92;;;0.87;;
69837;SDS011;57135;51.992;4.476;2023-04-24T03:51:50;0.85;;;0.80;;
69837;SDS011;57135;51.992;4.476;2023-04-24T03:54:17;0.80;;;0.75;;
69837;SDS011;57135;51.992;4.476;2023-04-24T03:56:43;0.94;;;0.90;;
69837;SDS011;57135;51.992;4.476;2023-04-24T03:59:08;1.07;;;1.03;;
69837;SDS011;57135;51.992;4.476;2023-04-24T04:01:33;1.06;;;1.02;;
69837;SDS011;57135;51.992;4.476;2023-04-24T04:04:02;1.17;;;1.13;;
69837;SDS011;57135;51.992;4.476;2023-04-24T04:06:28;1.09;;;1.05;;
69837;SDS011;57135;51.992;4.476;2023-04-24T04:08:55;1.27;;;1.23;;
69837;SDS011;57135;51.992;4.476;2023-04-24T04:11:21;1.55;;;1.55;;
69837;SDS011;57135;51.992;4.476;2023-04-24T04:13:47;1.22;;;1.22;;
69837;SDS011;57135;51.992;4.476;2023-04-24T04:16:13;1.26;;;1.25;;
69837;SDS011;57135;51.992;4.476;2023-04-24T04:18:39;1.40;;;1.40;;
69837;SDS011;57135;51.992;4.476;2023-04-24T04:21:04;1.41;;;1.41;;
69837;SDS011;57135;51.992;4.476;2023-04-24T04:23:30;1.23;;;1.22;;
69837;SDS011;57135;51.992;4.476;2023-04-24T04:25:57;1.19;;;1.18;;
69837;SDS011;57135;51.992;4.476;2023-04-24T04:28:22;1.34;;;1.32;;
69837;SDS011;57135;51.992;4.476;2023-04-24T04:30:49;1.73;;;1.70;;
69837;SDS011;57135;51.992;4.476;2023-04-24T04:33:19;2.45;;;2.42;;
69837;SDS011;57135;51.992;4.476;2023-04-24T04:35:45;3.07;;;3.05;;
69837;SDS011;57135;51.992;4.476;2023-04-24T04:38:14;3.25;;;3.23;;
69837;SDS011;57135;51.992;4.476;2023-04-24T04:40:40;3.71;;;3.69;;
69837;SDS011;57135;51.992;4.476;2023-04-24T04:43:05;4.17;;;4.15;;
69837;SDS011;57135;51.992;4.476;2023-04-24T04:45:31;4.44;;;4.41;;
69837;SDS011;57135;51.992;4.476;2023-04-24T04:47:57;4.19;;;4.16;;
69837;SDS011;57135;51.992;4.476;2023-04-24T04:50:25;4.23;;;4.22;;
69837;SDS011;57135;51.992;4.476;2023-04-24T04:52:51;4.50;;;4.47;;
69837;SDS011;57135;51.992;4.476;2023-04-24T04:55:17;4.49;;;4.47;;
69837;SDS011;57135;51.992;4.476;2023-04-24T04:57:45;5.95;;;5.94;;
69837;SDS011;57135;51.992;4.476;2023-04-24T05:00:11;7.19;;;7.14;;
69837;SDS011;57135;51.992;4.476;2023-04-24T05:02:37;9.62;;;9.52;;
69837;SDS011;57135;51.992;4.476;2023-04-24T05:05:03;11.72;;;11.60;;
69837;SDS011;57135;51.992;4.476;2023-04-24T05:07:28;14.07;;;13.85;;
69837;SDS011;57135;51.992;4.476;2023-04-24T05:09:54;14.62;;;14.58;;
69837;SDS011;57135;51.992;4.476;2023-04-24T05:12:19;16.06;;;15.89;;
69837;SDS011;57135;51.992;4.476;2023-04-24T05:14:45;15.65;;;15.55;;
69837;SDS011;57135;51.992;4.476;2023-04-24T05:17:10;14.74;;;14.65;;
69837;SDS011;57135;51.992;4.476;2023-04-24T05:19:36;14.26;;;14.20;;
69837;SDS011;57135;51.992;4.476;2023-04-24T05:22:03;13.73;;;13.70;;
69837;SDS011;57135;51.992;4.476;2023-04-24T05:24:31;13.53;;;13.51;;
69837;SDS011;57135;51.992;4.476;2023-04-24T05:26:58;12.79;;;12.73;;
69837;SDS011;57135;51.992;4.476;2023-04-24T05:29:24;13.81;;;13.70;;
69837;SDS011;57135;51.992;4.476;2023-04-24T05:31:50;14.59;;;14.49;;
69837;SDS011;57135;51.992;4.476;2023-04-24T05:34:15;14.82;;;14.73;;
69837;SDS011;57135;51.992;4.476;2023-04-24T05:36:41;14.73;;;14.67;;
69837;SDS011;57135;51.992;4.476;2023-04-24T05:39:07;15.42;;;15.36;;
69837;SDS011;57135;51.992;4.476;2023-04-24T05:41:33;14.97;;;14.86;;
69837;SDS011;57135;51.992;4.476;2023-04-24T05:43:59;15.24;;;15.06;;
69837;SDS011;57135;51.992;4.476;2023-04-24T05:46:24;15.11;;;15.00;;
69837;SDS011;57135;51.992;4.476;2023-04-24T05:48:50;15.52;;;15.49;;
69837;SDS011;57135;51.992;4.476;2023-04-24T05:51:16;14.91;;;14.84;;
69837;SDS011;57135;51.992;4.476;2023-04-24T05:53:41;14.94;;;14.89;;
69837;SDS011;57135;51.992;4.476;2023-04-24T05:56:06;15.16;;;15.11;;
69837;SDS011;57135;51.992;4.476;2023-04-24T05:58:32;14.38;;;14.34;;
69837;SDS011;57135;51.992;4.476;2023-04-24T06:00:57;13.71;;;13.65;;
69837;SDS011;57135;51.992;4.476;2023-04-24T06:03:24;13.41;;;13.31;;
69837;SDS011;57135;51.992;4.476;2023-04-24T06:05:50;13.33;;;13.28;;
69837;SDS011;57135;51.992;4.476;2023-04-24T06:08:16;11.65;;;11.51;;
69837;SDS011;57135;51.992;4.476;2023-04-24T06:10:41;11.52;;;11.32;;
69837;SDS011;57135;51.992;4.476;2023-04-24T06:13:07;12.04;;;11.64;;
69837;SDS011;57135;51.992;4.476;2023-04-24T06:15:32;10.54;;;9.99;;
69837;SDS011;57135;51.992;4.476;2023-04-24T06:17:58;10.98;;;10.31;;
69837;SDS011;57135;51.992;4.476;2023-04-24T06:20:24;10.62;;;9.90;;
69837;SDS011;57135;51.992;4.476;2023-04-24T06:22:49;10.35;;;9.73;;
69837;SDS011;57135;51.992;4.476;2023-04-24T06:25:15;9.89;;;9.17;;
69837;SDS011;57135;51.992;4.476;2023-04-24T06:27:40;9.33;;;8.85;;
69837;SDS011;57135;51.992;4.476;2023-04-24T06:30:06;9.52;;;8.85;;
69837;SDS011;57135;51.992;4.476;2023-04-24T06:32:32;8.90;;;8.42;;
69837;SDS011;57135;51.992;4.476;2023-04-24T06:34:57;8.85;;;8.23;;
69837;SDS011;57135;51.992;4.476;2023-04-24T06:37:23;9.67;;;8.70;;
69837;SDS011;57135;51.992;4.476;2023-04-24T06:39:49;10.03;;;9.02;;
69837;SDS011;57135;51.992;4.476;2023-04-24T06:42:14;9.07;;;8.36;;
69837;SDS011;57135;51.992;4.476;2023-04-24T06:44:40;9.06;;;8.26;;
69837;SDS011;57135;51.992;4.476;2023-04-24T06:47:08;8.90;;;8.02;;
69837;SDS011;57135;51.992;4.476;2023-04-24T06:49:38;9.02;;;8.18;;
69837;SDS011;57135;51.992;4.476;2023-04-24T06:52:04;10.94;;;9.40;;
69837;SDS011;57135;51.992;4.476;2023-04-24T06:54:30;9.59;;;8.41;;
69837;SDS011;57135;51.992;4.476;2023-04-24T06:56:56;9.84;;;8.46;;
69837;SDS011;57135;51.992;4.476;2023-04-24T06:59:23;9.27;;;7.73;;
69837;SDS011;57135;51.992;4.476;2023-04-24T07:01:49;9.60;;;7.95;;
69837;SDS011;57135;51.992;4.476;2023-04-24T07:04:16;9.64;;;7.69;;
69837;SDS011;57135;51.992;4.476;2023-04-24T07:06:42;10.23;;;7.97;;
69837;SDS011;57135;51.992;4.476;2023-04-24T07:09:08;7.78;;;6.36;;
69837;SDS011;57135;51.992;4.476;2023-04-24T07:11:34;8.05;;;6.29;;
69837;SDS011;57135;51.992;4.476;2023-04-24T07:14:02;8.40;;;6.52;;
69837;SDS011;57135;51.992;4.476;2023-04-24T07:16:28;8.05;;;6.38;;
69837;SDS011;57135;51.992;4.476;2023-04-24T07:18:54;8.96;;;6.86;;
69837;SDS011;57135;51.992;4.476;2023-04-24T07:21:19;9.77;;;7.29;;
69837;SDS011;57135;51.992;4.476;2023-04-24T07:23:45;10.33;;;7.43;;
69837;SDS011;57135;51.992;4.476;2023-04-24T07:26:10;11.12;;;7.87;;
69837;SDS011;57135;51.992;4.476;2023-04-24T07:28:36;9.12;;;6.76;;
69837;SDS011;57135;51.992;4.476;2023-04-24T07:31:01;7.64;;;5.97;;
69837;SDS011;57135;51.992;4.476;2023-04-24T07:33:26;7.41;;;5.85;;
69837;SDS011;57135;51.992;4.476;2023-04-24T07:35:52;7.78;;;6.07;;
69837;SDS011;57135;51.992;4.476;2023-04-24T07:38:18;9.52;;;7.07;;
69837;SDS011;57135;51.992;4.476;2023-04-24T07:40:47;9.53;;;6.79;;
69837;SDS011;57135;51.992;4.476;2023-04-24T07:43:13;8.60;;;6.34;;
69837;SDS011;57135;51.992;4.476;2023-04-24T07:45:39;9.23;;;6.73;;
69837;SDS011;57135;51.992;4.476;2023-04-24T07:48:04;9.28;;;6.69;;
69837;SDS011;57135;51.992;4.476;2023-04-24T07:50:30;9.23;;;6.66;;
69837;SDS011;57135;51.992;4.476;2023-04-24T07:52:56;7.89;;;6.08;;
69837;SDS011;57135;51.992;4.476;2023-04-24T07:55:22;8.47;;;6.41;;
69837;SDS011;57135;51.992;4.476;2023-04-24T07:57:48;8.56;;;6.50;;
69837;SDS011;57135;51.992;4.476;2023-04-24T08:00:14;7.61;;;5.93;;
69837;SDS011;57135;51.992;4.476;2023-04-24T08:02:39;8.01;;;6.19;;
69837;SDS011;57135;51.992;4.476;2023-04-24T08:05:05;7.20;;;5.53;;
69837;SDS011;57135;51.992;4.476;2023-04-24T08:07:31;7.41;;;5.70;;
69837;SDS011;57135;51.992;4.476;2023-04-24T08:09:56;7.21;;;5.56;;
69837;SDS011;57135;51.992;4.476;2023-04-24T08:12:22;6.53;;;5.19;;
69837;SDS011;57135;51.992;4.476;2023-04-24T08:14:47;6.03;;;4.95;;
69837;SDS011;57135;51.992;4.476;2023-04-24T08:17:13;6.19;;;5.05;;
69837;SDS011;57135;51.992;4.476;2023-04-24T08:19:39;6.28;;;5.09;;
69837;SDS011;57135;51.992;4.476;2023-04-24T08:22:08;5.97;;;4.81;;
69837;SDS011;57135;51.992;4.476;2023-04-24T08:24:33;5.15;;;4.31;;
69837;SDS011;57135;51.992;4.476;2023-04-24T08:26:59;4.99;;;4.28;;
69837;SDS011;57135;51.992;4.476;2023-04-24T08:29:25;5.17;;;4.39;;
69837;SDS011;57135;51.992;4.476;2023-04-24T08:31:51;5.30;;;4.36;;
69837;SDS011;57135;51.992;4.476;2023-04-24T08:34:19;4.99;;;4.17;;
69837;SDS011;57135;51.992;4.476;2023-04-24T08:36:48;4.59;;;3.87;;
69837;SDS011;57135;51.992;4.476;2023-04-24T08:39:13;4.79;;;3.98;;
69837;SDS011;57135;51.992;4.476;2023-04-24T08:41:41;5.17;;;4.25;;
69837;SDS011;57135;51.992;4.476;2023-04-24T08:44:08;5.26;;;4.31;;
69837;SDS011;57135;51.992;4.476;2023-04-24T08:46:35;4.96;;;4.23;;
69837;SDS011;57135;51.992;4.476;2023-04-24T08:49:01;4.36;;;3.63;;
69837;SDS011;57135;51.992;4.476;2023-04-24T08:51:27;3.95;;;3.36;;
69837;SDS011;57135;51.992;4.476;2023-04-24T08:53:53;3.36;;;2.93;;
69837;SDS011;57135;51.992;4.476;2023-04-24T08:56:20;3.38;;;2.89;;
69837;SDS011;57135;51.992;4.476;2023-04-24T08:58:48;3.74;;;3.14;;
69837;SDS011;57135;51.992;4.476;2023-04-24T09:01:16;3.49;;;2.93;;
69837;SDS011;57135;51.992;4.476;2023-04-24T09:03:44;3.36;;;2.80;;
69837;SDS011;57135;51.992;4.476;2023-04-24T09:06:13;3.60;;;2.96;;
69837;SDS011;57135;51.992;4.476;2023-04-24T09:08:39;3.53;;;2.84;;
69837;SDS011;57135;51.992;4.476;2023-04-24T09:11:06;3.29;;;2.63;;
69837;SDS011;57135;51.992;4.476;2023-04-24T09:13:33;3.64;;;2.80;;
69837;SDS011;57135;51.992;4.476;2023-04-24T09:15:58;4.05;;;3.04;;
69837;SDS011;57135;51.992;4.476;2023-04-24T09:18:25;4.63;;;3.45;;
69837;SDS011;57135;51.992;4.476;2023-04-24T09:20:58;4.46;;;3.34;;
69837;SDS011;57135;51.992;4.476;2023-04-24T09:23:28;4.06;;;3.11;;
69837;SDS011;57135;51.992;4.476;2023-04-24T09:26:14;4.59;;;3.47;;
69837;SDS011;57135;51.992;4.476;2023-04-24T09:28:40;4.49;;;3.27;;
69837;SDS011;57135;51.992;4.476;2023-04-24T09:31:07;3.21;;;2.34;;
69837;SDS011;57135;51.992;4.476;2023-04-24T09:33:34;3.39;;;2.46;;
69837;SDS011;57135;51.992;4.476;2023-04-24T09:36:01;3.94;;;2.84;;
69837;SDS011;57135;51.992;4.476;2023-04-24T09:38:31;3.54;;;2.55;;
69837;SDS011;57135;51.992;4.476;2023-04-24T09:40:58;4.40;;;3.13;;
69837;SDS011;57135;51.992;4.476;2023-04-24T09:43:26;4.36;;;3.04;;
69837;SDS011;57135;51.992;4.476;2023-04-24T09:45:52;4.37;;;2.96;;
69837;SDS011;57135;51.992;4.476;2023-04-24T09:48:29;5.12;;;3.42;;
69837;SDS011;57135;51.992;4.476;2023-04-24T09:50:58;4.42;;;2.95;;
69837;SDS011;57135;51.992;4.476;2023-04-24T09:53:25;4.85;;;3.29;;
69837;SDS011;57135;51.992;4.476;2023-04-24T09:55:52;3.93;;;2.67;;
69837;SDS011;57135;51.992;4.476;2023-04-24T09:58:18;4.47;;;3.00;;
69837;SDS011;57135;51.992;4.476;2023-04-24T10:00:49;4.33;;;2.93;;
69837;SDS011;57135;51.992;4.476;2023-04-24T10:03:18;5.03;;;3.38;;
69837;SDS011;57135;51.992;4.476;2023-04-24T10:05:44;4.57;;;3.04;;
69837;SDS011;57135;51.992;4.476;2023-04-24T10:08:11;4.68;;;3.13;;
69837;SDS011;57135;51.992;4.476;2023-04-24T10:10:39;4.35;;;2.96;;
69837;SDS011;57135;51.992;4.476;2023-04-24T10:13:09;3.61;;;2.51;;
69837;SDS011;57135;51.992;4.476;2023-04-24T10:15:36;3.74;;;2.60;;
69837;SDS011;57135;51.992;4.476;2023-04-24T10:18:03;4.18;;;2.85;;
69837;SDS011;57135;51.992;4.476;2023-04-24T10:20:31;4.39;;;3.00;;
69837;SDS011;57135;51.992;4.476;2023-04-24T10:22:58;4.87;;;3.36;;
69837;SDS011;57135;51.992;4.476;2023-04-24T10:25:25;5.12;;;3.46;;
69837;SDS011;57135;51.992;4.476;2023-04-24T10:27:53;5.11;;;3.39;;
69837;SDS011;57135;51.992;4.476;2023-04-24T10:30:22;5.04;;;3.38;;
69837;SDS011;57135;51.992;4.476;2023-04-24T10:32:48;5.55;;;3.68;;
69837;SDS011;57135;51.992;4.476;2023-04-24T10:35:14;5.40;;;3.59;;
69837;SDS011;57135;51.992;4.476;2023-04-24T10:37:45;5.78;;;3.84;;
69837;SDS011;57135;51.992;4.476;2023-04-24T10:40:25;5.56;;;3.70;;
69837;SDS011;57135;51.992;4.476;2023-04-24T10:42:52;7.57;;;5.14;;
69837;SDS011;57135;51.992;4.476;2023-04-24T10:45:19;7.35;;;5.01;;
69837;SDS011;57135;51.992;4.476;2023-04-24T10:47:58;4.87;;;3.39;;
69837;SDS011;57135;51.992;4.476;2023-04-24T10:50:30;5.64;;;4.06;;
69837;SDS011;57135;51.992;4.476;2023-04-24T10:53:07;4.50;;;3.20;;
69837;SDS011;57135;51.992;4.476;2023-04-24T10:58:08;4.93;;;3.54;;
69837;SDS011;57135;51.992;4.476;2023-04-24T11:00:34;4.15;;;2.96;;
69837;SDS011;57135;51.992;4.476;2023-04-24T11:03:03;3.72;;;2.64;;
69837;SDS011;57135;51.992;4.476;2023-04-24T11:05:49;3.73;;;2.64;;
69837;SDS011;57135;51.992;4.476;2023-04-24T11:08:31;2.45;;;1.74;;
69837;SDS011;57135;51.992;4.476;2023-04-24T11:11:15;2.22;;;1.61;;
69837;SDS011;57135;51.992;4.476;2023-04-24T11:16:20;2.30;;;1.70;;
69837;SDS011;57135;51.992;4.476;2023-04-24T11:19:01;2.17;;;1.62;;
69837;SDS011;57135;51.992;4.476;2023-04-24T11:21:49;2.31;;;1.70;;
69837;SDS011;57135;51.992;4.476;2023-04-24T11:35:03;3.95;;;2.82;;
69837;SDS011;57135;51.992;4.476;2023-04-24T11:37:37;3.61;;;2.53;;
69837;SDS011;57135;51.992;4.476;2023-04-24T11:40:06;3.66;;;2.66;;
69837;SDS011;57135;51.992;4.476;2023-04-24T11:42:33;3.85;;;2.82;;
69837;SDS011;57135;51.992;4.476;2023-04-24T11:45:00;4.75;;;3.49;;
69837;SDS011;57135;51.992;4.476;2023-04-24T11:47:32;5.08;;;3.74;;
69837;SDS011;57135;51.992;4.476;2023-04-24T11:50:01;4.61;;;3.36;;
69837;SDS011;57135;51.992;4.476;2023-04-24T11:52:29;4.56;;;3.38;;
69837;SDS011;57135;51.992;4.476;2023-04-24T11:54:56;4.53;;;3.39;;
69837;SDS011;57135;51.992;4.476;2023-04-24T11:57:22;4.35;;;3.27;;
69837;SDS011;57135;51.992;4.476;2023-04-24T11:59:51;5.38;;;3.96;;
69837;SDS011;57135;51.992;4.476;2023-04-24T12:02:23;5.48;;;4.03;;
69837;SDS011;57135;51.992;4.476;2023-04-24T12:04:50;5.20;;;3.83;;
69837;SDS011;57135;51.992;4.476;2023-04-24T12:07:16;5.62;;;4.10;;
69837;SDS011;57135;51.992;4.476;2023-04-24T12:12:15;5.52;;;4.15;;
69837;SDS011;57135;51.992;4.476;2023-04-24T12:14:45;5.11;;;3.88;;
69837;SDS011;57135;51.992;4.476;2023-04-24T12:17:14;5.12;;;3.94;;
69837;SDS011;57135;51.992;4.476;2023-04-24T12:19:44;6.03;;;4.49;;
69837;SDS011;57135;51.992;4.476;2023-04-24T12:22:12;6.44;;;4.83;;
69837;SDS011;57135;51.992;4.476;2023-04-24T12:24:55;5.43;;;4.21;;
69837;SDS011;57135;51.992;4.476;2023-04-24T12:27:31;5.97;;;4.52;;
69837;SDS011;57135;51.992;4.476;2023-04-24T12:30:01;6.83;;;5.14;;
69837;SDS011;57135;51.992;4.476;2023-04-24T12:32:29;7.48;;;5.69;;
69837;SDS011;57135;51.992;4.476;2023-04-24T12:34:55;7.16;;;5.35;;
69837;SDS011;57135;51.992;4.476;2023-04-24T12:37:24;7.77;;;5.72;;
69837;SDS011;57135;51.992;4.476;2023-04-24T12:42:26;7.66;;;5.92;;
69837;SDS011;57135;51.992;4.476;2023-04-24T12:44:55;6.18;;;4.82;;
69837;SDS011;57135;51.992;4.476;2023-04-24T12:47:25;6.73;;;5.23;;
69837;SDS011;57135;51.992;4.476;2023-04-24T12:49:52;7.57;;;5.75;;
69837;SDS011;57135;51.992;4.476;2023-04-24T12:52:21;7.67;;;5.85;;
69837;SDS011;57135;51.992;4.476;2023-04-24T12:54:49;7.45;;;5.69;;
69837;SDS011;57135;51.992;4.476;2023-04-24T12:57:25;7.93;;;6.05;;
69837;SDS011;57135;51.992;4.476;2023-04-24T12:59:55;8.52;;;6.55;;
69837;SDS011;57135;51.992;4.476;2023-04-24T13:02:22;7.83;;;6.11;;
69837;SDS011;57135;51.992;4.476;2023-04-24T13:04:48;7.25;;;5.65;;
69837;SDS011;57135;51.992;4.476;2023-04-24T13:07:14;7.35;;;5.73;;
69837;SDS011;57135;51.992;4.476;2023-04-24T13:09:40;7.14;;;5.67;;
69837;SDS011;57135;51.992;4.476;2023-04-24T13:12:08;7.03;;;5.55;;
69837;SDS011;57135;51.992;4.476;2023-04-24T13:14:33;7.81;;;6.05;;
69837;SDS011;57135;51.992;4.476;2023-04-24T13:16:59;6.82;;;5.53;;
69837;SDS011;57135;51.992;4.476;2023-04-24T13:19:25;6.18;;;5.29;;
69837;SDS011;57135;51.992;4.476;2023-04-24T13:21:52;6.11;;;5.24;;
69837;SDS011;57135;51.992;4.476;2023-04-24T13:24:19;5.74;;;4.95;;
69837;SDS011;57135;51.992;4.476;2023-04-24T13:26:45;5.83;;;5.16;;
69837;SDS011;57135;51.992;4.476;2023-04-24T13:29:10;5.84;;;5.16;;
69837;SDS011;57135;51.992;4.476;2023-04-24T13:31:36;6.24;;;5.39;;
69837;SDS011;57135;51.992;4.476;2023-04-24T13:34:04;6.98;;;5.83;;
69837;SDS011;57135;51.992;4.476;2023-04-24T13:36:30;7.36;;;6.20;;
69837;SDS011;57135;51.992;4.476;2023-04-24T13:38:56;7.73;;;6.53;;
69837;SDS011;57135;51.992;4.476;2023-04-24T13:41:22;7.07;;;5.89;;
69837;SDS011;57135;51.992;4.476;2023-04-24T13:43:50;6.33;;;5.38;;
69837;SDS011;57135;51.992;4.476;2023-04-24T13:46:15;5.68;;;4.90;;
69837;SDS011;57135;51.992;4.476;2023-04-24T13:48:41;5.67;;;5.06;;
69837;SDS011;57135;51.992;4.476;2023-04-24T13:51:06;5.31;;;4.92;;
69837;SDS011;57135;51.992;4.476;2023-04-24T13:53:32;5.03;;;4.73;;
69837;SDS011;57135;51.992;4.476;2023-04-24T13:56:01;4.86;;;4.53;;
69837;SDS011;57135;51.992;4.476;2023-04-24T13:58:27;5.48;;;4.99;;
69837;SDS011;57135;51.992;4.476;2023-04-24T14:00:52;5.65;;;5.08;;
69837;SDS011;57135;51.992;4.476;2023-04-24T14:03:18;6.35;;;5.64;;
69837;SDS011;57135;51.992;4.476;2023-04-24T14:05:43;7.12;;;6.34;;
69837;SDS011;57135;51.992;4.476;2023-04-24T14:08:09;6.59;;;6.06;;
69837;SDS011;57135;51.992;4.476;2023-04-24T14:10:34;7.16;;;6.43;;
69837;SDS011;57135;51.992;4.476;2023-04-24T14:13:00;8.18;;;7.00;;
69837;SDS011;57135;51.992;4.476;2023-04-24T14:15:26;8.38;;;7.18;;
69837;SDS011;57135;51.992;4.476;2023-04-24T14:17:51;8.64;;;7.17;;
69837;SDS011;57135;51.992;4.476;2023-04-24T14:20:17;8.69;;;7.35;;
69837;SDS011;57135;51.992;4.476;2023-04-24T14:22:42;7.65;;;6.72;;
69837;SDS011;57135;51.992;4.476;2023-04-24T14:25:08;7.63;;;6.65;;
69837;SDS011;57135;51.992;4.476;2023-04-24T14:27:33;7.88;;;6.80;;
69837;SDS011;57135;51.992;4.476;2023-04-24T14:29:59;7.68;;;6.85;;
69837;SDS011;57135;51.992;4.476;2023-04-24T14:32:25;7.43;;;6.59;;
69837;SDS011;57135;51.992;4.476;2023-04-24T14:34:51;7.44;;;6.61;;
69837;SDS011;57135;51.992;4.476;2023-04-24T14:37:16;7.79;;;6.74;;
69837;SDS011;57135;51.992;4.476;2023-04-24T14:39:42;8.40;;;7.21;;
69837;SDS011;57135;51.992;4.476;2023-04-24T14:42:07;8.65;;;7.42;;
69837;SDS011;57135;51.992;4.476;2023-04-24T14:44:33;9.12;;;7.64;;
69837;SDS011;57135;51.992;4.476;2023-04-24T14:46:58;8.34;;;7.15;;
69837;SDS011;57135;51.992;4.476;2023-04-24T14:49:24;8.46;;;7.25;;
69837;SDS011;57135;51.992;4.476;2023-04-24T14:51:51;9.22;;;7.75;;
69837;SDS011;57135;51.992;4.476;2023-04-24T14:54:16;7.61;;;6.62;;
69837;SDS011;57135;51.992;4.476;2023-04-24T14:56:42;7.60;;;6.68;;
69837;SDS011;57135;51.992;4.476;2023-04-24T14:59:09;7.57;;;6.55;;
69837;SDS011;57135;51.992;4.476;2023-04-24T15:01:35;7.90;;;6.62;;
69837;SDS011;57135;51.992;4.476;2023-04-24T15:04:00;7.60;;;6.30;;